EZY32KL EGKK-LEVC
Flight info
| Callsign | EZY32KL |
|---|---|
| Flight time | N/A |
| Altitude | 33000 |
| Route | SFD4Z SFD Y47 BENBO UY47 DRAKE L151 SITET UN859 SOPIL DCT BALAN DCT LMG DCT PIMQO DCT AGN DCT ANETO DCT POSSY DCT ROCME DCT SEROX DCT CASPE DCT MLA DCT CRETA DCT RIMES DCT SAURA SAURA4D |
| Aircraft | A320/M-SDE3FGHIRWY/LB1 |
Departure
| Time | N/A |
|---|---|
| Airport | London Gatwick Airport (EGKK) |
Arrival
| Time | 2026-04-30 18:09 |
|---|---|
| Airport | Valencia Airport (LEVC) |
| Time | Latitude | Longitude | Altitude | Speed | Heading |
|---|---|---|---|---|---|
| 2026-04-30 17:44 | 40.97172 | 0.10142 | 33042 ft | 395 kts | 200° |
| 2026-04-30 17:46 | 40.84091 | 0.04911 | 32048 ft | 388 kts | 200° |
| 2026-04-30 17:47 | 40.73950 | 0.00842 | 30384 ft | 377 kts | 200° |
| 2026-04-30 17:48 | 40.64086 | -0.03090 | 28585 ft | 363 kts | 200° |
| 2026-04-30 17:48 | 40.57737 | -0.05618 | 27474 ft | 354 kts | 200° |
| 2026-04-30 17:49 | 40.48462 | -0.09316 | 25738 ft | 344 kts | 200° |
| 2026-04-30 17:50 | 40.39341 | -0.12917 | 23894 ft | 342 kts | 199° |
| 2026-04-30 17:51 | 40.32453 | -0.15637 | 21708 ft | 332 kts | 199° |
| 2026-04-30 17:52 | 40.26188 | -0.18100 | 20533 ft | 304 kts | 200° |
| 2026-04-30 17:53 | 40.16012 | -0.22103 | 18615 ft | 306 kts | 200° |
| 2026-04-30 17:54 | 40.07852 | -0.25303 | 17059 ft | 305 kts | 199° |
| 2026-04-30 17:55 | 39.99738 | -0.28469 | 15588 ft | 304 kts | 200° |
| 2026-04-30 17:56 | 39.91682 | -0.31614 | 14144 ft | 303 kts | 200° |
| 2026-04-30 17:57 | 39.85687 | -0.34142 | 12999 ft | 297 kts | 214° |
| 2026-04-30 17:58 | 39.82156 | -0.40379 | 11948 ft | 285 kts | 241° |
| 2026-04-30 17:59 | 39.78237 | -0.49246 | 10503 ft | 280 kts | 241° |
| 2026-04-30 18:00 | 39.74418 | -0.57960 | 8922 ft | 274 kts | 241° |
| 2026-04-30 18:00 | 39.71655 | -0.64304 | 8033 ft | 256 kts | 242° |
| 2026-04-30 18:01 | 39.69981 | -0.68125 | 7666 ft | 237 kts | 242° |
| 2026-04-30 18:02 | 39.67330 | -0.73153 | 6721 ft | 225 kts | 218° |
| 2026-04-30 18:02 | 39.63331 | -0.76236 | 5522 ft | 221 kts | 191° |
| 2026-04-30 18:03 | 39.59126 | -0.74494 | 4300 ft | 217 kts | 132° |
| 2026-04-30 18:04 | 39.56991 | -0.69424 | 3481 ft | 213 kts | 115° |
| 2026-04-30 18:05 | 39.54481 | -0.62789 | 2409 ft | 190 kts | 114° |
| 2026-04-30 18:06 | 39.52523 | -0.57623 | 1572 ft | 137 kts | 115° |
| 2026-04-30 18:07 | 39.50926 | -0.53410 | 866 ft | 128 kts | 113° |
| 2026-04-30 18:08 | 39.49784 | -0.50386 | 359 ft | 125 kts | 115° |
| 2026-04-30 18:09 | 39.48834 | -0.47906 | 211 ft | 28 kts | 116° |
| 2026-04-30 18:10 | 39.48816 | -0.47200 | 192 ft | 12 kts | 339° |
| 2026-04-30 18:11 | 39.48962 | -0.47356 | 205 ft | 1 kts | 349° |
| 2026-04-30 18:11 | 39.49042 | -0.47334 | 207 ft | 2 kts | 11° |
| 2026-04-30 18:12 | 39.49043 | -0.47333 | 207 ft | 0 kts | 11° |